Main page
METAR-TAF:

METAR-TAF

Airports :

Midland International Air and Space Port

Midland, Texas, United States

latitude: 31-56-52N, longitude: 102-12-31W, elevation: 2870 ft

Current weather observation

The report was made 1 hour and 3 minutes ago, at 16:53 UTC
Wind 24 mph from the South with gusts up to 35 mph
Temperature 88°F
Humidity 46%
Pressure 29.96 in. Hg
Visibility: 10 miles
Clear sky

METAR: KMAF 151653Z 17021G30KT 10SM CLR 31/18 A2996 RMK AO2 PK WND 17030/1650 SLP090 T03060178

Time: 12:56 (17:56 UTC)

Forecast

The report was made 36 minutes ago, at 17:20 UTC
Forecast valid from 15 at 18 UTC to 16 at 18 UTC
Wind 18 mph from the South/Southeast with gusts up to 25 mph
Visibility: 6 miles
Clear sky

TAF: KMAF 151720Z 1518/1618 16016G22KT P6SM SKC

Weather observations and forecasts of more than 4000 airports (METAR and TAF reports).

The available stations are represented by yellow and red dots on the map.

Hover mouse over dot to see the name of the station.

Then click to see weather observations and forecasts.

To change the map : click on the green buttons with a black cross to zoom in, on the green button with a dash to zoom out, or on the green arrows for adjacent maps.


METAR-TAF: